createdAt,value
2022-12-22T00:02:47.206Z,89.71
2022-12-22T00:08:10.886Z,89.56
2022-12-22T00:13:35.292Z,89.53
2022-12-22T00:18:58.751Z,89.58
2022-12-22T00:24:22.287Z,89.91
2022-12-22T00:29:47.995Z,89.85
2022-12-22T00:35:11.645Z,89.96
2022-12-22T00:40:40.859Z,90.12
2022-12-22T00:46:04.295Z,89.77
2022-12-22T00:51:28.684Z,89.77
2022-12-22T00:56:52.548Z,89.94
2022-12-22T01:02:16.294Z,90.01
2022-12-22T01:07:42.984Z,89.98
2022-12-22T01:13:06.887Z,89.91
2022-12-22T01:18:30.167Z,89.86
2022-12-22T01:23:53.984Z,89.83
2022-12-22T01:29:17.415Z,89.78
2022-12-22T01:34:40.461Z,89.80
2022-12-22T01:40:04.084Z,90.05
2022-12-22T01:45:42.542Z,90.24
2022-12-22T01:51:06.250Z,90.02
2022-12-22T01:56:30.900Z,90.39
2022-12-22T02:01:55.452Z,90.33
2022-12-22T02:07:21.679Z,90.50
2022-12-22T02:12:57.328Z,90.42
2022-12-22T02:18:38.612Z,90.45
2022-12-22T02:24:14.095Z,90.31
2022-12-22T02:29:40.757Z,90.20
2022-12-22T02:35:04.096Z,90.80
2022-12-22T02:40:48.506Z,90.50
2022-12-22T02:46:32.421Z,90.60
2022-12-22T02:51:58.781Z,90.65
2022-12-22T02:57:25.134Z,90.79
2022-12-22T03:02:48.845Z,90.73
2022-12-22T03:08:12.525Z,90.65
2022-12-22T03:13:35.894Z,90.55
2022-12-22T03:18:58.962Z,90.80
2022-12-22T03:24:22.557Z,90.85
2022-12-22T03:29:27.933Z,90.54
2022-12-22T03:34:33.543Z,90.38
2022-12-22T03:39:39.000Z,90.06
2022-12-22T03:45:02.211Z,90.38
2022-12-22T03:50:08.521Z,90.05
2022-12-22T03:55:13.980Z,90.00
2022-12-22T04:00:20.182Z,89.39
2022-12-22T04:05:25.714Z,89.39
2022-12-22T04:10:49.146Z,89.90
2022-12-22T04:15:54.540Z,89.46
2022-12-22T04:21:00.004Z,89.20
2022-12-22T04:26:05.625Z,89.48
2022-12-22T04:31:11.057Z,89.62
2022-12-22T04:36:17.559Z,89.43
2022-12-22T04:41:23.080Z,89.56
2022-12-22T04:46:28.651Z,89.63
2022-12-22T04:51:34.328Z,89.14
2022-12-22T04:56:39.797Z,89.03
2022-12-22T05:01:45.418Z,88.85
2022-12-22T05:06:50.973Z,88.80
2022-12-22T05:11:56.360Z,88.82
2022-12-22T05:17:01.803Z,88.94
2022-12-22T05:22:07.278Z,88.35
2022-12-22T05:27:13.698Z,88.28
2022-12-22T05:32:19.384Z,88.22
2022-12-22T05:37:24.787Z,88.17
2022-12-22T05:42:39.728Z,88.16
2022-12-22T05:47:47.894Z,88.59
2022-12-22T05:52:53.360Z,88.72
2022-12-22T05:58:00.972Z,88.69
2022-12-22T06:03:06.569Z,88.62
2022-12-22T06:08:12.222Z,88.78
2022-12-22T06:13:17.745Z,88.68
2022-12-22T06:18:23.270Z,88.36
2022-12-22T06:23:29.066Z,88.75
2022-12-22T06:28:34.583Z,88.70
2022-12-22T06:33:40.056Z,88.46
2022-12-22T06:38:45.499Z,88.46
2022-12-22T06:43:50.954Z,88.05
2022-12-22T06:48:56.405Z,88.25
2022-12-22T06:54:02.010Z,88.18
2022-12-22T06:59:07.635Z,88.25
2022-12-22T07:04:16.755Z,88.53
2022-12-22T07:09:22.229Z,88.37
2022-12-22T07:14:27.697Z,88.40
2022-12-22T07:19:33.211Z,88.44
2022-12-22T07:24:38.707Z,88.85
2022-12-22T07:29:44.272Z,88.74
2022-12-22T07:34:49.645Z,88.50
2022-12-22T07:39:55.763Z,88.81
2022-12-22T07:45:01.237Z,89.00
2022-12-22T07:50:26.009Z,89.11
2022-12-22T07:55:34.537Z,89.00
2022-12-22T08:00:40.068Z,88.92
2022-12-22T08:05:46.456Z,88.88
2022-12-22T08:10:52.011Z,88.64
2022-12-22T08:15:57.476Z,88.71
2022-12-22T08:21:04.398Z,88.45
2022-12-22T08:26:12.855Z,88.28
2022-12-22T08:31:19.668Z,87.91
2022-12-22T08:36:25.936Z,88.31
2022-12-22T08:41:50.365Z,88.08
2022-12-22T08:46:57.975Z,88.32
2022-12-22T08:52:03.799Z,88.03
2022-12-22T08:57:09.333Z,87.83
2022-12-22T09:02:15.076Z,87.81
2022-12-22T09:07:21.299Z,89.24
2022-12-22T09:12:26.769Z,87.84
2022-12-22T09:17:32.170Z,87.35
2022-12-22T09:22:37.628Z,87.42
2022-12-22T09:27:43.082Z,87.43
2022-12-22T09:32:48.605Z,87.62
2022-12-22T09:37:54.001Z,87.42
2022-12-22T09:43:00.210Z,86.92
2022-12-22T09:48:07.724Z,86.96
2022-12-22T09:53:19.037Z,87.01
2022-12-22T09:58:30.805Z,87.31
2022-12-22T10:04:00.378Z,86.52
2022-12-22T10:09:44.162Z,86.42
2022-12-22T10:14:23.054Z,87.00
2022-12-22T10:19:28.462Z,86.51
2022-12-22T10:24:36.826Z,86.49
2022-12-22T10:29:42.903Z,86.47
2022-12-22T10:35:03.444Z,85.99
2022-12-22T10:40:22.846Z,86.13
2022-12-22T10:45:29.363Z,85.86
2022-12-22T10:50:34.898Z,85.64
2022-12-22T10:55:40.418Z,85.58
2022-12-22T11:00:50.762Z,85.62
2022-12-22T11:05:57.571Z,85.64
2022-12-22T11:11:06.018Z,85.57
2022-12-22T11:16:17.704Z,85.50
2022-12-22T11:21:38.246Z,85.66
2022-12-22T11:26:52.285Z,86.06
2022-12-22T11:32:00.717Z,85.51
2022-12-22T11:37:30.278Z,87.10
2022-12-22T11:42:38.778Z,86.99
2022-12-22T11:47:50.200Z,86.31
2022-12-22T11:53:17.199Z,85.96
2022-12-22T11:58:45.347Z,86.23
2022-12-22T12:04:05.515Z,86.17
2022-12-22T12:09:28.853Z,85.95
2022-12-22T12:15:07.548Z,85.62
2022-12-22T12:20:32.991Z,85.01
2022-12-22T12:25:47.577Z,84.22
2022-12-22T12:30:59.429Z,85.06
2022-12-22T12:36:13.444Z,85.03
2022-12-22T12:41:24.925Z,78.43
2022-12-22T12:46:48.861Z,80.66
2022-12-22T12:51:55.458Z,82.64
2022-12-22T12:57:09.775Z,82.81
2022-12-22T13:02:33.438Z,81.66
2022-12-22T13:08:11.436Z,82.10
2022-12-22T13:13:29.124Z,82.32
2022-12-22T13:18:44.321Z,81.94
2022-12-22T13:24:24.035Z,82.43
2022-12-22T13:29:18.890Z,82.38
2022-12-22T13:34:31.011Z,82.02
2022-12-22T13:39:36.471Z,82.53
2022-12-22T13:44:42.148Z,82.02
2022-12-22T13:54:55.420Z,81.13
2022-12-22T14:00:00.951Z,80.62
2022-12-22T14:05:10.895Z,80.99
2022-12-22T14:10:16.352Z,79.64
2022-12-22T14:15:22.548Z,79.61
2022-12-22T14:20:32.379Z,80.96
2022-12-22T14:25:43.875Z,81.46
2022-12-22T14:30:52.387Z,81.19
2022-12-22T14:36:20.832Z,81.45
2022-12-22T14:41:44.402Z,81.83
2022-12-22T14:47:20.473Z,82.54
2022-12-22T14:52:41.039Z,82.98
2022-12-22T14:57:46.564Z,83.70
2022-12-22T15:03:01.806Z,84.05
2022-12-22T15:08:10.320Z,84.57
2022-12-22T15:13:22.537Z,84.91
2022-12-22T15:18:29.750Z,85.53
2022-12-22T15:23:35.212Z,85.81
2022-12-22T15:28:40.687Z,86.10
2022-12-22T15:33:46.908Z,86.19
2022-12-22T15:38:52.503Z,86.50
2022-12-22T15:43:59.240Z,86.71
2022-12-22T15:49:05.573Z,87.06
2022-12-22T15:54:13.996Z,87.30
2022-12-22T15:59:22.575Z,87.56
2022-12-22T16:04:28.667Z,87.74
2022-12-22T16:09:43.250Z,87.79
2022-12-22T16:14:51.683Z,88.19
2022-12-22T16:19:57.163Z,87.92
2022-12-22T16:25:05.515Z,88.12
2022-12-22T16:30:17.014Z,88.30
2022-12-22T16:35:25.419Z,88.67
2022-12-22T16:40:33.726Z,89.01
2022-12-22T16:45:39.600Z,89.44
2022-12-22T16:50:47.972Z,89.56
2022-12-22T16:55:53.429Z,89.54
2022-12-22T17:00:58.966Z,89.72
2022-12-22T17:06:05.900Z,90.08
2022-12-22T17:11:14.110Z,89.82
2022-12-22T17:16:22.047Z,89.96
2022-12-22T17:21:29.892Z,89.94
2022-12-22T17:26:37.865Z,90.08
2022-12-22T17:31:43.479Z,90.03
2022-12-22T17:36:50.402Z,90.36
2022-12-22T17:41:57.532Z,90.05
2022-12-22T17:47:03.207Z,89.78
2022-12-22T17:52:17.822Z,89.57
2022-12-22T17:57:26.206Z,89.62
2022-12-22T18:02:31.840Z,89.77
2022-12-22T18:07:43.896Z,89.71
2022-12-22T18:12:46.198Z,90.29
2022-12-22T18:17:52.703Z,90.18
2022-12-22T18:23:02.360Z,90.65
2022-12-22T18:28:09.978Z,90.30
2022-12-22T18:33:15.512Z,90.25
2022-12-22T18:38:30.490Z,89.94
2022-12-22T18:43:35.993Z,89.98
2022-12-22T18:48:41.520Z,89.77
2022-12-22T18:53:47.421Z,89.60
2022-12-22T18:58:52.961Z,89.39
2022-12-22T19:03:59.287Z,89.33
2022-12-22T19:09:04.897Z,89.13
2022-12-22T19:14:22.315Z,89.08
2022-12-22T19:19:27.780Z,88.91
2022-12-22T19:24:33.162Z,89.09
2022-12-22T19:29:38.764Z,89.16
2022-12-22T19:34:44.155Z,89.22
2022-12-22T19:39:49.742Z,89.30
2022-12-22T19:44:55.290Z,88.98
2022-12-22T19:50:01.083Z,88.77
2022-12-22T19:55:07.217Z,88.73
2022-12-22T20:00:24.444Z,88.61
2022-12-22T20:05:32.212Z,88.56
2022-12-22T20:10:40.063Z,88.83
2022-12-22T20:15:46.690Z,88.43
2022-12-22T20:20:57.498Z,83.62
2022-12-22T20:26:05.762Z,86.39
2022-12-22T20:31:14.702Z,87.06
2022-12-22T20:36:31.122Z,87.26
2022-12-22T20:41:36.655Z,87.36
2022-12-22T20:46:47.971Z,87.36
2022-12-22T20:52:00.819Z,87.50
2022-12-22T20:57:06.817Z,87.70
2022-12-22T21:02:24.466Z,87.50
2022-12-22T21:07:30.353Z,87.57
2022-12-22T21:12:37.691Z,87.49
2022-12-22T21:17:46.119Z,87.54
2022-12-22T21:22:50.649Z,87.43
2022-12-22T21:27:56.581Z,87.17
2022-12-22T21:33:02.050Z,86.97
2022-12-22T21:38:07.643Z,87.09
2022-12-22T21:43:13.484Z,87.25
2022-12-22T21:48:21.229Z,87.13
2022-12-22T21:53:26.789Z,87.41
2022-12-22T21:58:32.287Z,87.45
2022-12-22T22:03:48.510Z,87.41
2022-12-22T22:08:56.046Z,87.39
2022-12-22T22:14:01.653Z,87.16
2022-12-22T22:19:19.935Z,87.43
2022-12-22T22:24:25.484Z,87.33
2022-12-22T22:29:31.022Z,87.30
2022-12-22T22:34:36.500Z,87.54
2022-12-22T22:39:42.134Z,87.31
2022-12-22T22:44:47.595Z,87.63
2022-12-22T22:49:52.986Z,87.56
2022-12-22T22:54:58.524Z,87.43
2022-12-22T23:00:05.323Z,87.42
2022-12-22T23:05:16.950Z,87.28
2022-12-22T23:10:19.063Z,86.06
2022-12-22T23:15:24.562Z,87.18
2022-12-22T23:20:30.028Z,87.17
2022-12-22T23:25:35.527Z,87.20
2022-12-22T23:30:42.754Z,87.28
2022-12-22T23:35:50.178Z,87.10
2022-12-22T23:41:07.524Z,87.17
2022-12-22T23:46:16.018Z,87.42
2022-12-22T23:51:23.162Z,87.45
2022-12-22T23:56:30.253Z,87.40
